This is the latest recevied weather packets stored in our database for station/object KF0PEC-15. If no packets are shown the sender has not sent any weather packets the latest 10 day(s).
| Time | Temp. | Humidity | Pressure | Rain* | Wind** | Luminosity | Snow |
|---|---|---|---|---|---|---|---|
| 1777912428 | 18.89° C | 30% | 1004.2 hPa | 0 mm | - | 469 W/m² | - |
| 1777911840 | 18.89° C | 29% | 1004.2 hPa | 0 mm | - | 268 W/m² | - |
| 1777911300 | 19.44° C | 29% | 1003.8 hPa | 0 mm | - | 378 W/m² | - |
| 1777910768 | 20° C | 28% | 1003.6 hPa | 0 mm | - | 594 W/m² | - |
| 1777910288 | 18.33° C | 30% | 1004.9 hPa | 0 mm | - | 634 W/m² | - |
| 1777909700 | 16.67° C | 32% | 1006.1 hPa | 0 mm | - | 292 W/m² | - |
| 1777909200 | 16.67° C | 31% | 1006.2 hPa | 0 mm | - | 185 W/m² | - |
| 1777908680 | 16.67° C | 31% | 1006.3 hPa | 0 mm | - | 173 W/m² | - |
| 1777908148 | 16.11° C | 31% | 1006.3 hPa | 0 mm | - | 153 W/m² | - |
| 1777907658 | 16.11° C | 32% | 1006.5 hPa | 0 mm | - | 166 W/m² | - |
| 1777907165 | 16.11° C | 31% | 1006.6 hPa | 0 mm | - | 196 W/m² | - |
| 1777906648 | 15.56° C | 32% | 1006.9 hPa | 0 mm | - | 185 W/m² | - |
| 1777906060 | 14.44° C | 35% | 1007.7 hPa | 0 mm | - | 135 W/m² | - |
| 1777905460 | 13.33° C | 43% | 1008.9 hPa | 0 mm | - | 104 W/m² | - |
| 1777904908 | 12.78° C | 46% | 1009.2 hPa | 0 mm | - | 154 W/m² | - |
| 1777904368 | 11.67° C | 48% | 1010.3 hPa | 0 mm | - | 147 W/m² | - |
| 1777903808 | 11.11° C | 52% | 1010.3 hPa | 0 mm | - | 866 W/m² | - |
| 1777903285 | 11.11° C | 54% | 1010.6 hPa | 0 mm | - | 895 W/m² | - |
| 1777902705 | 10° C | 60% | 1011.3 hPa | 0 mm | - | 103 W/m² | - |
| 1777902125 | 9.44° C | 59% | 1011.9 hPa | 0 mm | - | 969 W/m² | - |
| 1777901620 | 8.33° C | 61% | 1012.7 hPa | 0 mm | - | 827 W/m² | - |
| 1777901105 | 7.78° C | 65% | 1013.4 hPa | 0 mm | - | 746 W/m² | - |
| 1777900570 | 7.22° C | 65% | 1013.6 hPa | 0 mm | - | 739 W/m² | - |
| 1777900005 | 7.22° C | 65% | 1014 hPa | 0 mm | - | 619 W/m² | - |
| 1777899465 | 6.67° C | 65% | 1014.2 hPa | 0 mm | - | 398 W/m² | - |
* Rain latest hour (hover to see other rain measurements)
** Current wind speed in m/s (hover to see current wind gust speed)